Skip Navigation Links
NOAA logo - Click to go to the NOAA homepage
NOAA's National Weather Service
Alaska Aviation Weather Unit
  NWS logo - Click to go to the NWS homepage
Left Navbar Graphic     19 AKDT = 03 GMT

   
NOAA is celebrating 200 years of science, service, and stewardship. Visit the NOAA 200th celebration Web site to learn more.
USA.gov is the U.S. Government's official Web portal to all Federal, state and local government Web resources and services.
Facebook
NWS on Facebook

Important Change Regarding the AAWU Web Presence

 

Over the last several months, the AAWU has been working to navigate its webpages to a nationally supported server. Security, as well as other needs, have necessitated the change.  We have been given an extension for the site changeover while we diligently work at addressing feedback received. As of July 14, 2017, aawu.arh.noaa.gov will be discontinued. The new AAWU web address is weather.gov/aawu. It is now live and will run in-parallel with the old site until it is discontinued on July 14, 2017. Please continue to send any feedback or questions regarding the new webpages to nws.ar.aawu.webauthors@noaa.gov.  Thank you for your patience during this time of transition.
AAWU Home :: Display TAF Add Bookmark
TAF PAGK 282338Z 2900/2924 16013G23KT P6SM BKN100
     FM290600 16011KT P6SM BKN100
     FM292100 16012G20KT P6SM BKN070=
METAR PAGK 282153Z AUTO 15009G18KT 10SM CLR 18/02 A2999 RMK AO2 SLP156
     T01780017 TSNO=

METAR PAGK 282253Z AUTO 17010G21KT 10SM CLR 19/02 A2998 RMK AO2
 SLP152 T01890022 TSNO=

METAR PAGK 282353Z AUTO 16012KT 10SM CLR 18/02 A2997 RMK AO2 SLP152
 T01830017 10189 20139 56006 TSNO=

METAR PAGK 290053Z AUTO 15015G20KT 10SM CLR 18/02 A2997 RMK AO2 SLP149
     T01830022 TSNO=

METAR PAGK 290153Z AUTO 16013G20KT 10SM CLR 19/02 A2995 RMK AO2 SLP145
     T01890022 TSNO=

METAR PAGK 290253Z AUTO 16015G21KT 10SM CLR 18/02 A2996 RMK AO2
 SLP145 T01780022 55005 TSNO=


NOAA's National Weather Service
Alaska Aviation Weather Unit
6930 Sand Lake Road
Anchorage, AK 99502-1845
Disclaimer
Credits
Glossary
Privacy Policy
About Us
Career Opportunities
Contact AAWU Internet Services Site last modified: April, 17th 2012